Time;durP1;ratioP1;P1;durP2;ratioP2;P2;SDS_P1;SDS_P2;PMS_P1;PMS_P2;Temp;Humidity;BMP_temperature;BMP_pressure;BME280_temperature;BME280_humidity;BME280_pressure;Samples;Min_cycle;Max_cycle;Signal;HPM_P1;HPM_P2
2022/05/12 00:00:28;;;;;;;13.13;9.75;;;15.90;95.80;;;;;;4975103;28;20042;-86
2022/05/12 00:02:54;;;;;;;14.20;9.10;;;15.90;95.10;;;;;;5007779;28;20432;-86
2022/05/12 00:05:20;;;;;;;15.32;9.07;;;15.90;95.20;;;;;;4988795;28;20069;-86
2022/05/12 00:07:47;;;;;;;15.35;8.75;;;16.00;95.00;;;;;;4991151;28;20419;-86
2022/05/12 00:10:16;;;;;;;11.95;8.82;;;16.00;95.30;;;;;;4988976;28;20589;-86
2022/05/12 00:12:43;;;;;;;11.75;9.27;;;16.00;94.70;;;;;;4980239;28;20073;-86
2022/05/12 00:15:13;;;;;;;13.70;9.50;;;15.90;95.60;;;;;;4987667;28;20671;-86
2022/05/12 00:17:39;;;;;;;12.93;8.77;;;15.90;94.30;;;;;;5006045;28;20030;-86
2022/05/12 00:20:06;;;;;;;15.23;9.63;;;15.80;94.00;;;;;;4980362;28;20038;-86
2022/05/12 00:22:32;;;;;;;11.18;9.32;;;15.80;94.70;;;;;;4988015;28;20073;-86
2022/05/12 00:24:57;;;;;;;11.93;8.60;;;15.80;94.40;;;;;;4995148;28;20062;-86
2022/05/12 00:27:23;;;;;;;12.68;8.35;;;15.80;94.00;;;;;;4998589;28;20482;-86
2022/05/12 00:29:48;;;;;;;12.00;8.40;;;15.90;94.10;;;;;;4993452;28;20066;-86
2022/05/12 00:32:14;;;;;;;10.55;8.43;;;15.90;94.10;;;;;;5011525;28;20018;-86
2022/05/12 00:34:40;;;;;;;11.73;8.65;;;15.90;93.80;;;;;;5011019;28;20030;-86
2022/05/12 00:37:08;;;;;;;13.25;8.48;;;15.90;93.30;;;;;;5008218;28;20058;-86
2022/05/12 00:39:35;;;;;;;11.15;8.45;;;16.00;92.80;;;;;;4996645;28;20029;-86
2022/05/12 00:42:00;;;;;;;12.88;9.02;;;15.90;92.30;;;;;;4991976;28;20121;-86
2022/05/12 00:44:26;;;;;;;14.45;8.57;;;16.00;91.90;;;;;;4992913;28;20126;-86
2022/05/12 00:46:53;;;;;;;14.85;8.13;;;15.80;92.80;;;;;;4993788;28;20049;-86
2022/05/12 00:49:35;;;;;;;10.90;7.18;;;15.80;92.60;;;;;;4953346;28;20027;-85
2022/05/12 00:52:09;;;;;;;10.52;7.53;;;15.80;92.40;;;;;;4968050;28;20034;-86
2022/05/12 00:54:56;;;;;;;15.48;7.95;;;15.80;92.60;;;;;;4993659;28;20023;-87
2022/05/12 00:57:30;;;;;;;8.68;7.53;;;15.80;92.50;;;;;;4979789;28;20354;-86
2022/05/12 00:59:57;;;;;;;11.27;8.07;;;15.60;93.50;;;;;;4999133;28;20086;-86
2022/05/12 01:02:24;;;;;;;14.50;8.43;;;15.70;92.10;;;;;;4993165;28;20968;-86
2022/05/12 01:04:51;;;;;;;13.45;7.78;;;15.60;93.00;;;;;;4994041;28;20092;-86
2022/05/12 01:07:17;;;;;;;14.95;8.00;;;15.60;92.40;;;;;;4986663;28;20564;-86
2022/05/12 01:09:43;;;;;;;13.23;8.48;;;15.50;92.60;;;;;;4978472;28;20034;-86
2022/05/12 01:12:10;;;;;;;10.13;7.60;;;15.50;92.80;;;;;;5009625;28;20034;-85
2022/05/12 01:14:36;;;;;;;12.18;7.57;;;15.50;92.90;;;;;;4993411;28;20026;-86
2022/05/12 01:17:03;;;;;;;13.73;8.50;;;15.40;93.90;;;;;;4980329;28;20041;-86
2022/05/12 01:19:33;;;;;;;14.05;8.05;;;15.30;94.30;;;;;;4998867;28;20480;-86
2022/05/12 01:22:00;;;;;;;11.65;7.78;;;15.30;93.80;;;;;;4994636;28;20027;-86
2022/05/12 01:24:39;;;;;;;13.80;8.13;;;15.20;94.70;;;;;;4990093;28;20027;-86
2022/05/12 01:27:19;;;;;;;10.48;8.15;;;15.10;94.60;;;;;;4973037;28;20027;-86
2022/05/12 01:29:46;;;;;;;9.18;7.15;;;15.10;94.40;;;;;;4993251;28;20039;-86
2022/05/12 01:32:12;;;;;;;9.65;8.15;;;15.10;95.40;;;;;;5004095;28;20038;-86
2022/05/12 01:34:37;;;;;;;18.83;7.78;;;15.00;94.60;;;;;;4991070;28;20085;-86
2022/05/12 01:37:03;;;;;;;12.82;7.55;;;15.00;94.90;;;;;;4991972;28;20087;-86
2022/05/12 01:39:29;;;;;;;12.93;6.85;;;15.00;94.60;;;;;;5008110;28;20022;-86
2022/05/12 01:41:54;;;;;;;26.15;7.18;;;15.20;93.70;;;;;;5008172;28;20545;-86
2022/05/12 01:44:20;;;;;;;11.30;7.40;;;15.10;94.20;;;;;;4984800;28;20066;-86
2022/05/12 01:46:45;;;;;;;11.75;7.35;;;15.00;94.20;;;;;;4996271;28;20046;-86
2022/05/12 01:49:11;;;;;;;10.93;7.13;;;14.90;94.40;;;;;;4991602;28;20042;-86
2022/05/12 01:51:38;;;;;;;10.93;7.05;;;14.90;95.10;;;;;;4989344;28;20505;-86
2022/05/12 01:54:04;;;;;;;12.20;7.38;;;14.80;95.10;;;;;;4990657;28;20019;-86
2022/05/12 01:56:30;;;;;;;12.07;7.07;;;14.80;95.20;;;;;;4983025;28;20038;-86
2022/05/12 01:58:55;;;;;;;11.57;7.82;;;14.80;94.90;;;;;;4991924;28;20061;-86
2022/05/12 02:01:21;;;;;;;10.52;6.90;;;14.80;95.00;;;;;;4991199;28;20350;-85
2022/05/12 02:03:47;;;;;;;11.02;7.38;;;14.70;95.40;;;;;;4992449;28;20211;-86
2022/05/12 02:06:12;;;;;;;12.55;7.07;;;14.60;95.70;;;;;;5007364;28;20030;-86
2022/05/12 02:08:38;;;;;;;8.68;6.35;;;14.50;96.40;;;;;;4983231;28;20056;-86
2022/05/12 02:11:04;;;;;;;10.95;6.60;;;14.60;95.90;;;;;;5007725;28;20165;-86
2022/05/12 02:13:29;;;;;;;11.50;7.03;;;14.80;94.90;;;;;;5008416;28;20417;-86
2022/05/12 02:15:56;;;;;;;8.70;5.97;;;14.70;95.40;;;;;;4992360;28;20049;-86
2022/05/12 02:18:23;;;;;;;10.07;6.32;;;14.70;95.30;;;;;;4974118;28;20023;-86
2022/05/12 02:20:49;;;;;;;8.95;6.00;;;14.80;94.80;;;;;;5005278;28;20066;-86
2022/05/12 02:23:15;;;;;;;8.25;6.22;;;14.80;94.30;;;;;;5005891;28;20058;-86
2022/05/12 02:25:40;;;;;;;8.35;5.95;;;14.80;94.40;;;;;;4990158;28;20042;-86
2022/05/12 02:28:07;;;;;;;9.43;5.85;;;14.70;94.80;;;;;;4990601;28;20149;-85
2022/05/12 02:30:34;;;;;;;12.15;5.63;;;14.60;95.20;;;;;;4990751;28;20050;-86
2022/05/12 02:33:00;;;;;;;9.00;5.50;;;14.70;95.10;;;;;;4990246;28;20026;-86
2022/05/12 02:35:28;;;;;;;7.15;5.25;;;14.80;94.70;;;;;;4985497;28;20378;-86
2022/05/12 02:37:53;;;;;;;10.00;5.25;;;14.70;94.70;;;;;;4988623;28;20465;-86
2022/05/12 02:40:22;;;;;;;7.00;5.53;;;15.10;93.10;;;;;;5006502;28;20126;-86
2022/05/12 02:42:48;;;;;;;10.98;5.55;;;15.10;93.10;;;;;;4987215;28;20041;-86
2022/05/12 02:45:14;;;;;;;10.30;5.43;;;15.10;92.90;;;;;;4987118;28;20390;-86
2022/05/12 02:47:40;;;;;;;7.55;4.53;;;15.20;92.90;;;;;;4992472;28;20548;-86
2022/05/12 02:50:07;;;;;;;7.95;5.05;;;15.30;91.20;;;;;;4986285;28;20474;-86
2022/05/12 02:52:33;;;;;;;7.43;5.20;;;15.20;91.90;;;;;;4991744;28;20019;-86
2022/05/12 02:54:58;;;;;;;5.97;4.63;;;15.20;91.30;;;;;;4992677;28;20029;-86
2022/05/12 02:57:24;;;;;;;7.28;5.00;;;15.10;91.80;;;;;;4988030;28;20498;-86
2022/05/12 02:59:50;;;;;;;8.68;5.10;;;15.10;91.70;;;;;;4992128;28;20121;-86
2022/05/12 03:02:16;;;;;;;7.15;4.53;;;15.00;91.60;;;;;;4991169;28;20046;-86
2022/05/12 03:04:41;;;;;;;12.63;5.47;;;15.10;91.10;;;;;;4990421;28;20049;-86
2022/05/12 03:07:07;;;;;;;8.05;4.85;;;15.20;90.80;;;;;;5006856;28;20035;-86
2022/05/12 03:09:33;;;;;;;7.68;5.00;;;15.00;91.50;;;;;;4991437;28;20533;-86
2022/05/12 03:11:58;;;;;;;6.55;5.22;;;14.90;91.50;;;;;;4991014;28;20109;-86
2022/05/12 03:14:24;;;;;;;8.40;4.97;;;14.90;92.00;;;;;;4990274;28;20027;-86
2022/05/12 03:16:53;;;;;;;9.23;4.78;;;15.00;90.90;;;;;;4983112;28;20039;-86
2022/05/12 03:19:21;;;;;;;8.25;4.82;;;15.00;90.50;;;;;;4989897;28;20022;-86
2022/05/12 03:21:47;;;;;;;7.65;4.68;;;15.20;89.90;;;;;;4991095;28;20394;-86
2022/05/12 03:24:16;;;;;;;6.28;4.53;;;15.10;91.10;;;;;;4989702;28;20031;-86
2022/05/12 03:26:42;;;;;;;9.27;4.22;;;15.10;90.50;;;;;;4987748;28;20113;-86
2022/05/12 03:29:07;;;;;;;8.65;4.85;;;15.20;89.80;;;;;;4990970;28;20031;-86
2022/05/12 03:31:33;;;;;;;6.82;4.30;;;15.20;88.70;;;;;;4990753;28;20037;-86
2022/05/12 03:34:00;;;;;;;13.27;4.78;;;15.30;88.40;;;;;;4975576;28;20019;-86
2022/05/12 03:36:26;;;;;;;7.93;3.90;;;15.30;88.30;;;;;;4982227;28;20023;-85
2022/05/12 03:38:51;;;;;;;6.07;3.67;;;15.30;88.30;;;;;;5010686;28;20062;-86
2022/05/12 03:41:17;;;;;;;6.82;4.03;;;15.30;87.90;;;;;;5013908;28;20034;-86
2022/05/12 03:46:31;;;;;;;9.25;4.18;;;15.50;85.80;;;;;;5001067;28;20074;-86
2022/05/12 03:48:58;;;;;;;8.07;4.65;;;15.60;83.80;;;;;;4981832;28;20038;-86
2022/05/12 03:51:24;;;;;;;6.20;4.18;;;15.60;84.00;;;;;;4986323;28;20026;-86
2022/05/12 03:53:50;;;;;;;5.82;3.90;;;15.50;84.20;;;;;;4983895;28;20386;-86
2022/05/12 03:56:15;;;;;;;7.25;4.72;;;15.40;85.40;;;;;;5003073;28;20022;-86
2022/05/12 03:58:41;;;;;;;5.00;4.20;;;15.40;88.50;;;;;;4989384;28;20026;-86
2022/05/12 04:01:07;;;;;;;10.13;4.93;;;15.20;88.30;;;;;;4997835;28;20074;-86
2022/05/12 04:03:33;;;;;;;9.88;4.13;;;15.30;87.90;;;;;;4988053;28;20026;-86
2022/05/12 04:06:02;;;;;;;9.32;5.15;;;15.20;86.90;;;;;;4975538;28;20026;-86
2022/05/12 04:08:29;;;;;;;10.23;4.95;;;15.30;85.90;;;;;;4994779;28;20160;-86
2022/05/12 04:10:55;;;;;;;7.53;5.05;;;15.30;85.90;;;;;;5006464;28;20034;-86
2022/05/12 04:13:21;;;;;;;9.07;5.05;;;15.30;88.40;;;;;;4988468;28;20026;-86
2022/05/12 04:15:47;;;;;;;9.50;5.40;;;15.40;87.00;;;;;;5006236;28;20854;-86
2022/05/12 04:18:12;;;;;;;8.63;4.47;;;15.40;88.00;;;;;;4974705;28;20477;-86
2022/05/12 04:20:38;;;;;;;11.05;4.38;;;15.60;84.80;;;;;;4975813;28;20038;-86
2022/05/12 04:23:05;;;;;;;9.52;5.00;;;15.60;84.60;;;;;;4989406;28;20025;-86
2022/05/12 04:25:30;;;;;;;12.13;5.30;;;15.70;86.80;;;;;;4984357;28;20160;-86
2022/05/12 04:27:56;;;;;;;9.93;4.68;;;15.70;86.70;;;;;;4981294;28;20031;-86
2022/05/12 04:30:27;;;;;;;9.85;5.22;;;15.70;85.20;;;;;;5005057;28;20386;-85
2022/05/12 04:32:53;;;;;;;8.40;4.25;;;15.80;86.10;;;;;;4994224;28;20375;-86
2022/05/12 04:35:20;;;;;;;8.95;4.32;;;15.80;85.40;;;;;;4991279;28;20054;-85
2022/05/12 04:37:51;;;;;;;6.55;4.50;;;15.80;86.60;;;;;;4991829;28;20501;-86
2022/05/12 04:40:21;;;;;;;10.82;4.97;;;15.80;85.80;;;;;;5001714;28;20037;-85
2022/05/12 04:42:49;;;;;;;11.57;5.25;;;15.80;87.80;;;;;;4984074;28;20046;-85
2022/05/12 04:45:16;;;;;;;7.20;4.78;;;15.70;87.70;;;;;;5001443;28;20503;-85
2022/05/12 04:47:43;;;;;;;7.07;4.65;;;15.60;90.40;;;;;;4986134;28;20030;-85
2022/05/12 04:50:12;;;;;;;7.00;4.85;;;15.40;91.10;;;;;;5005746;28;20466;-85
2022/05/12 04:52:38;;;;;;;9.95;4.70;;;15.40;90.30;;;;;;4982642;28;20034;-85
2022/05/12 04:55:05;;;;;;;10.27;5.00;;;15.40;90.50;;;;;;4986848;28;20031;-85
2022/05/12 04:57:42;;;;;;;8.52;5.22;;;15.40;90.10;;;;;;4979718;28;20027;-85
2022/05/12 05:00:13;;;;;;;8.25;4.30;;;15.50;90.10;;;;;;4988954;28;20030;-85
2022/05/12 05:02:39;;;;;;;9.32;5.03;;;15.60;89.40;;;;;;4985957;28;20367;-85
2022/05/12 05:05:05;;;;;;;9.52;4.70;;;15.60;89.00;;;;;;4988608;28;20033;-85
2022/05/12 05:07:31;;;;;;;9.13;4.20;;;15.70;90.50;;;;;;4989557;28;20030;-85
2022/05/12 05:09:57;;;;;;;9.25;5.28;;;15.70;87.10;;;;;;4989231;28;20041;-85
2022/05/12 05:12:23;;;;;;;9.25;5.13;;;15.80;87.80;;;;;;5007689;28;20034;-86
2022/05/12 05:14:48;;;;;;;7.85;4.88;;;15.80;86.70;;;;;;4993620;28;20030;-86
2022/05/12 05:17:14;;;;;;;7.03;4.72;;;15.90;87.00;;;;;;4991863;28;20064;-85
2022/05/12 05:19:41;;;;;;;10.18;4.40;;;15.90;86.50;;;;;;4994147;28;20026;-84
2022/05/12 05:22:07;;;;;;;6.70;4.40;;;16.00;86.10;;;;;;4992003;28;20042;-85
2022/05/12 05:24:34;;;;;;;27.98;5.68;;;16.00;86.00;;;;;;4991618;28;20533;-86
2022/05/12 05:27:00;;;;;;;9.25;5.32;;;16.00;87.40;;;;;;4992024;28;20041;-85
2022/05/12 05:29:26;;;;;;;11.27;5.05;;;16.00;86.00;;;;;;4994236;28;20027;-87
2022/05/12 05:31:51;;;;;;;8.15;4.95;;;16.00;85.40;;;;;;4969533;28;20041;-86
2022/05/12 05:34:17;;;;;;;7.65;4.72;;;16.00;85.50;;;;;;4983491;28;20034;-86
2022/05/12 05:36:44;;;;;;;9.07;5.03;;;16.00;88.10;;;;;;4991672;28;20041;-86
2022/05/12 05:39:25;;;;;;;8.27;4.65;;;16.10;87.00;;;;;;5005820;28;20046;-86
2022/05/12 05:41:54;;;;;;;9.38;4.70;;;16.10;87.90;;;;;;4986415;28;20039;-84
2022/05/12 05:44:20;;;;;;;8.13;4.95;;;16.20;86.30;;;;;;4994690;28;20104;-87
2022/05/12 05:46:45;;;;;;;8.43;4.68;;;16.30;84.60;;;;;;5010950;28;20530;-87
2022/05/12 05:49:12;;;;;;;7.55;4.75;;;16.30;85.00;;;;;;4995563;28;20034;-87
2022/05/12 05:54:21;;;;;;;6.57;4.70;;;16.40;85.80;;;;;;4990416;28;20445;-86
2022/05/12 05:56:47;;;;;;;9.45;4.78;;;16.50;89.10;;;;;;4987210;28;20038;-86
2022/05/12 05:59:13;;;;;;;14.82;5.60;;;16.60;84.90;;;;;;4991706;28;20041;-86
2022/05/12 06:01:39;;;;;;;10.00;4.90;;;16.60;84.40;;;;;;4993104;28;20046;-86
2022/05/12 06:04:05;;;;;;;8.38;5.22;;;16.70;86.70;;;;;;5010268;28;20103;-86
2022/05/12 06:06:30;;;;;;;8.75;5.47;;;16.70;83.40;;;;;;4986346;28;20041;-86
2022/05/12 06:08:56;;;;;;;7.13;4.60;;;16.80;83.10;;;;;;4988098;28;20109;-86
2022/05/12 06:11:22;;;;;;;6.60;4.65;;;16.90;88.00;;;;;;5002538;28;20030;-86
2022/05/12 06:13:48;;;;;;;13.40;5.72;;;16.90;82.90;;;;;;4992341;28;20122;-86
2022/05/12 06:16:14;;;;;;;10.23;4.75;;;16.90;86.50;;;;;;4988826;28;20405;-86
2022/05/12 06:18:41;;;;;;;9.10;5.10;;;16.90;87.80;;;;;;4989109;28;20030;-86
2022/05/12 06:21:12;;;;;;;10.65;4.60;;;16.80;84.40;;;;;;4988020;28;20048;-86
2022/05/12 06:23:38;;;;;;;9.68;4.65;;;16.80;85.30;;;;;;4988649;28;20767;-86
2022/05/12 06:26:06;;;;;;;8.52;4.82;;;17.00;87.30;;;;;;4993261;28;20414;-86
2022/05/12 06:28:32;;;;;;;10.05;4.78;;;17.00;82.90;;;;;;4992959;28;20557;-86
2022/05/12 06:30:57;;;;;;;7.38;4.43;;;17.10;87.80;;;;;;4991804;28;20058;-86
2022/05/12 06:33:23;;;;;;;7.53;4.18;;;17.10;87.50;;;;;;4990784;28;20034;-87
2022/05/12 06:35:50;;;;;;;12.63;5.28;;;17.30;84.80;;;;;;5007268;28;20034;-86
2022/05/12 06:38:16;;;;;;;7.88;4.80;;;17.50;90.10;;;;;;4974758;28;20481;-87
2022/05/12 06:40:42;;;;;;;6.78;4.97;;;17.60;85.10;;;;;;4991284;28;20058;-86
2022/05/12 06:43:08;;;;;;;7.57;4.10;;;17.80;82.40;;;;;;4992945;28;20497;-86
2022/05/12 06:45:35;;;;;;;10.05;4.63;;;17.80;85.90;;;;;;4992872;28;20034;-86
2022/05/12 06:48:01;;;;;;;9.93;5.03;;;17.70;78.00;;;;;;5015772;28;20081;-86
2022/05/12 06:50:29;;;;;;;7.15;4.68;;;17.80;79.80;;;;;;5009131;28;21317;-87
2022/05/12 06:52:56;;;;;;;6.28;4.35;;;18.00;79.50;;;;;;5007717;28;20026;-87
2022/05/12 06:55:24;;;;;;;6.22;4.35;;;18.10;80.70;;;;;;5006468;28;20035;-86
2022/05/12 06:57:50;;;;;;;10.23;4.50;;;18.30;82.20;;;;;;4997909;28;20061;-87
2022/05/12 07:00:16;;;;;;;8.48;4.43;;;18.40;78.60;;;;;;4996479;28;20424;-86
2022/05/12 07:02:47;;;;;;;6.80;4.28;;;18.50;77.50;;;;;;4993934;28;20023;-86
2022/05/12 07:05:25;;;;;;;6.80;4.60;;;18.60;74.30;;;;;;4991600;28;20030;-86
2022/05/12 07:07:51;;;;;;;7.95;4.25;;;18.80;78.90;;;;;;4985615;28;20293;-86
2022/05/12 07:10:20;;;;;;;10.23;4.53;;;18.90;71.80;;;;;;4972920;28;20106;-86
2022/05/12 07:12:47;;;;;;;15.50;4.22;;;18.90;77.20;;;;;;4977271;28;20391;-86
2022/05/12 07:15:13;;;;;;;6.78;4.40;;;19.00;72.00;;;;;;5008697;28;20010;-87
2022/05/12 07:17:43;;;;;;;8.75;4.43;;;19.10;72.90;;;;;;5003428;28;20058;-87
2022/05/12 07:28:22;;;;;;;6.95;3.70;;;19.90;68.00;;;;;;4998440;28;20382;-87
2022/05/12 07:31:03;;;;;;;10.23;4.50;;;20.00;64.20;;;;;;4988436;28;20031;-87
2022/05/12 07:33:40;;;;;;;6.65;4.57;;;19.90;62.30;;;;;;4986308;28;20027;-86
2022/05/12 07:36:19;;;;;;;7.43;4.63;;;20.10;60.20;;;;;;4984395;28;20632;-87
2022/05/12 07:38:45;;;;;;;7.90;4.05;;;20.20;61.60;;;;;;5007099;28;20041;-87
2022/05/12 07:41:12;;;;;;;7.50;4.35;;;20.30;61.30;;;;;;4990806;28;20034;-87
2022/05/12 07:43:42;;;;;;;6.38;3.90;;;20.50;64.70;;;;;;4989433;28;20034;-87
2022/05/12 07:46:09;;;;;;;7.28;4.35;;;20.50;60.70;;;;;;4989864;28;20113;-86
2022/05/12 07:48:35;;;;;;;7.10;4.35;;;20.70;62.30;;;;;;4995262;28;20704;-87
2022/05/12 07:51:01;;;;;;;6.95;4.82;;;20.80;59.50;;;;;;4971555;28;20034;-86
2022/05/12 07:53:27;;;;;;;6.78;4.15;;;20.90;58.00;;;;;;4981026;28;20025;-86
2022/05/12 07:55:53;;;;;;;6.93;4.75;;;20.70;58.70;;;;;;4989229;28;20034;-87
2022/05/12 07:58:19;;;;;;;7.68;4.95;;;20.80;59.20;;;;;;4987996;28;20500;-87
2022/05/12 08:00:45;;;;;;;11.40;5.00;;;20.90;59.80;;;;;;5006250;28;20065;-87
2022/05/12 08:03:11;;;;;;;8.23;4.88;;;21.00;57.80;;;;;;4974427;28;20027;-87
2022/05/12 08:05:37;;;;;;;6.93;4.53;;;21.20;60.60;;;;;;4987196;28;20038;-87
2022/05/12 08:08:05;;;;;;;7.45;4.78;;;21.00;59.30;;;;;;4989246;28;20023;-87
2022/05/12 08:10:31;;;;;;;7.03;4.97;;;21.20;59.80;;;;;;4980832;28;20421;-87
2022/05/12 08:12:57;;;;;;;6.35;5.13;;;21.40;61.30;;;;;;4989241;28;20029;-87
2022/05/12 08:15:25;;;;;;;12.18;5.22;;;21.50;57.60;;;;;;4990632;28;20022;-87
2022/05/12 08:17:56;;;;;;;17.05;4.75;;;21.50;56.20;;;;;;4990260;28;20362;-86
2022/05/12 08:20:23;;;;;;;6.82;4.55;;;21.70;56.00;;;;;;4974162;28;20050;-87
2022/05/12 08:22:49;;;;;;;10.85;5.00;;;21.60;59.40;;;;;;4983989;28;20450;-87
2022/05/12 08:25:15;;;;;;;8.43;4.90;;;21.70;57.00;;;;;;4987408;28;20046;-87
2022/05/12 08:27:42;;;;;;;10.55;4.63;;;21.70;55.70;;;;;;4987494;28;20405;-87
2022/05/12 08:30:10;;;;;;;5.95;5.13;;;21.80;57.80;;;;;;4987894;28;20031;-87
2022/05/12 08:32:36;;;;;;;6.00;4.20;;;22.00;60.50;;;;;;4987603;28;20031;-87
2022/05/12 08:35:02;;;;;;;7.35;5.05;;;22.10;53.60;;;;;;4991328;28;20105;-87
2022/05/12 08:37:28;;;;;;;8.18;5.50;;;21.90;54.90;;;;;;4980731;28;20109;-87
2022/05/12 08:39:54;;;;;;;9.50;5.20;;;22.00;54.70;;;;;;4991556;28;20065;-87
2022/05/12 08:42:35;;;;;;;8.73;4.60;;;22.30;56.30;;;;;;4991778;28;20030;-87
2022/05/12 08:45:04;;;;;;;8.95;5.07;;;22.40;55.20;;;;;;4994468;28;20429;-87
2022/05/12 08:47:45;;;;;;;8.27;5.80;;;22.10;52.30;;;;;;4984460;28;20039;-87
2022/05/12 08:50:31;;;;;;;7.55;4.57;;;22.20;53.70;;;;;;4990322;28;20121;-87
2022/05/12 08:53:03;;;;;;;12.00;5.13;;;22.50;53.50;;;;;;4991897;28;20027;-87
2022/05/12 08:55:37;;;;;;;8.13;5.18;;;23.00;53.00;;;;;;4983566;28;20023;-87
2022/05/12 08:58:08;;;;;;;8.57;5.30;;;23.50;52.60;;;;;;4986460;28;20068;-87
2022/05/12 09:00:42;;;;;;;6.25;4.78;;;23.30;51.90;;;;;;4992072;28;20049;-87
2022/05/12 09:03:39;;;;;;;8.07;4.85;;;22.90;51.20;;;;;;4992227;28;20548;-87
2022/05/12 09:06:19;;;;;;;7.00;4.85;;;22.60;53.50;;;;;;4996313;28;20035;-87
2022/05/12 09:09:13;;;;;;;6.00;5.18;;;22.50;53.00;;;;;;4986630;28;20062;-87
2022/05/12 09:11:54;;;;;;;7.18;4.78;;;22.80;54.80;;;;;;4977477;28;20113;-87
2022/05/12 09:14:34;;;;;;;7.72;5.32;;;22.90;53.50;;;;;;5008908;28;20035;-87
2022/05/12 09:17:01;;;;;;;7.53;5.00;;;23.10;55.50;;;;;;4994770;28;20478;-87
2022/05/12 09:19:28;;;;;;;7.20;4.75;;;23.10;54.00;;;;;;4994312;28;20038;-87
2022/05/12 09:21:55;;;;;;;9.32;4.90;;;22.90;51.60;;;;;;4976377;28;20114;-87
2022/05/12 09:24:21;;;;;;;13.32;5.50;;;22.90;52.70;;;;;;4997596;28;20027;-86
2022/05/12 09:26:53;;;;;;;8.88;4.90;;;23.00;51.80;;;;;;5005010;28;20046;-87
2022/05/12 09:29:27;;;;;;;8.25;5.50;;;23.20;53.70;;;;;;5004828;28;20366;-87
2022/05/12 09:31:56;;;;;;;6.10;5.05;;;23.50;52.70;;;;;;4995362;28;20066;-87
2022/05/12 09:34:29;;;;;;;8.20;5.78;;;23.80;51.60;;;;;;4991881;28;20035;-87
2022/05/12 09:36:56;;;;;;;7.72;5.35;;;23.70;51.30;;;;;;4993558;28;20057;-87
2022/05/12 09:39:40;;;;;;;7.03;5.05;;;23.80;53.60;;;;;;5007307;28;20034;-87
2022/05/12 09:42:36;;;;;;;8.98;5.20;;;23.90;50.50;;;;;;4974940;28;20034;-87
2022/05/12 09:45:23;;;;;;;10.50;5.95;;;23.80;54.90;;;;;;4990737;28;20512;-87
2022/05/12 09:47:48;;;;;;;8.00;5.30;;;23.60;50.40;;;;;;5006446;28;20038;-87
2022/05/12 09:50:17;;;;;;;7.93;4.75;;;23.90;51.70;;;;;;4994039;28;20024;-87
2022/05/12 09:52:55;;;;;;;9.18;5.82;;;24.10;51.40;;;;;;4994921;28;20089;-88
2022/05/12 09:56:02;;;;;;;7.05;5.45;;;24.00;50.50;;;;;;5017927;28;20048;-87
2022/05/12 09:58:43;;;;;;;10.23;5.90;;;24.20;49.10;;;;;;5015221;28;20011;-87
2022/05/12 10:01:11;;;;;;;7.75;5.20;;;24.40;47.90;;;;;;5010204;28;20086;-87
2022/05/12 10:09:28;;;;;;;8.13;5.35;;;24.20;50.50;;;;;;4995673;28;20499;-87
2022/05/12 10:12:02;;;;;;;8.27;5.40;;;24.20;49.30;;;;;;4992740;28;20031;-87
2022/05/12 10:14:47;;;;;;;7.50;5.05;;;24.20;52.00;;;;;;4992703;28;20235;-87
2022/05/12 10:17:51;;;;;;;7.78;5.75;;;24.40;49.90;;;;;;4991624;28;20034;-87
2022/05/12 10:20:20;;;;;;;8.52;5.72;;;24.10;49.30;;;;;;4991942;28;20654;-87
2022/05/12 10:23:07;;;;;;;9.07;5.65;;;24.20;49.50;;;;;;4992488;28;20022;-87
2022/05/12 10:25:57;;;;;;;8.23;6.00;;;24.20;53.10;;;;;;4991863;28;20109;-87
2022/05/12 10:28:58;;;;;;;8.00;5.43;;;24.60;50.50;;;;;;4989989;28;20049;-87
2022/05/12 10:31:28;;;;;;;7.40;5.40;;;24.50;47.70;;;;;;5005353;28;20436;-88
2022/05/12 10:34:27;;;;;;;10.20;5.78;;;24.60;50.00;;;;;;4992877;28;20050;-86
2022/05/12 10:37:21;;;;;;;5.88;5.28;;;25.00;50.10;;;;;;4991012;28;20154;-88
2022/05/12 10:40:09;;;;;;;8.13;5.30;;;25.20;48.60;;;;;;4983866;28;20030;-88
2022/05/12 10:42:41;;;;;;;11.45;6.10;;;25.30;48.20;;;;;;4990507;28;20076;-88
2022/05/12 10:45:29;;;;;;;8.93;5.10;;;25.60;46.30;;;;;;4993100;28;20038;-87
2022/05/12 10:48:31;;;;;;;8.00;5.47;;;25.00;46.20;;;;;;4982476;28;20108;-87
2022/05/12 10:51:02;;;;;;;8.63;6.10;;;25.60;47.50;;;;;;4990764;28;20030;-87
2022/05/12 10:53:49;;;;;;;12.52;5.47;;;26.00;45.10;;;;;;4980146;28;20034;-89
2022/05/12 10:56:24;;;;;;;6.10;5.22;;;26.10;44.10;;;;;;4990940;28;20040;-89
2022/05/12 10:59:04;;;;;;;8.10;5.38;;;26.40;44.90;;;;;;5008792;28;20085;-88
2022/05/12 11:01:35;;;;;;;10.68;5.43;;;26.60;43.40;;;;;;4991552;28;20030;-89
2022/05/12 11:04:19;;;;;;;8.80;5.32;;;26.80;44.20;;;;;;4991772;28;20093;-89
2022/05/12 11:06:54;;;;;;;9.57;5.90;;;26.90;43.00;;;;;;4990315;28;20054;-89
2022/05/12 11:09:30;;;;;;;7.57;5.22;;;27.60;41.20;;;;;;5004566;28;20023;-89
2022/05/12 11:12:04;;;;;;;6.68;5.55;;;26.40;40.40;;;;;;4990566;28;20026;-88
2022/05/12 11:15:03;;;;;;;9.27;5.50;;;26.10;44.50;;;;;;4990977;28;20445;-87
2022/05/12 11:17:44;;;;;;;7.57;5.53;;;26.10;43.40;;;;;;4990958;28;20038;-89
2022/05/12 11:20:28;;;;;;;9.25;5.53;;;27.80;45.70;;;;;;4988861;28;20513;-88
2022/05/12 11:23:02;;;;;;;9.35;6.15;;;28.30;40.90;;;;;;4986963;28;20041;-89
2022/05/12 11:25:40;;;;;;;10.98;5.68;;;28.80;41.60;;;;;;4990576;28;20489;-89
2022/05/12 11:31:14;;;;;;;8.68;5.75;;;28.30;40.10;;;;;;4989314;28;20042;-90
2022/05/12 11:33:46;;;;;;;7.03;5.70;;;27.80;38.00;;;;;;4991791;28;20038;-90
2022/05/12 11:36:12;;;;;;;9.48;5.75;;;27.20;40.50;;;;;;4988051;28;20029;-90
2022/05/12 11:38:39;;;;;;;7.28;5.43;;;28.30;44.60;;;;;;4992674;28;20031;-89
2022/05/12 11:41:06;;;;;;;13.82;6.40;;;28.00;40.00;;;;;;4989336;28;20036;-90
2022/05/12 11:46:21;;;;;;;7.72;5.57;;;28.50;37.10;;;;;;4991574;28;20059;-90
2022/05/12 11:49:10;;;;;;;8.80;5.70;;;28.70;37.50;;;;;;4989551;28;20173;-90
2022/05/12 11:51:54;;;;;;;7.28;5.80;;;28.70;39.20;;;;;;5005115;28;20034;-90
2022/05/12 11:54:31;;;;;;;7.38;5.55;;;29.60;40.90;;;;;;5013221;28;20030;-90
2022/05/12 11:56:58;;;;;;;6.05;5.45;;;29.80;37.70;;;;;;4989262;28;20486;-89
2022/05/12 11:59:28;;;;;;;6.05;5.25;;;29.30;37.00;;;;;;4990984;28;20037;-88
2022/05/12 12:01:58;;;;;;;10.25;5.60;;;29.10;39.20;;;;;;4991601;28;20058;-88
2022/05/12 12:04:39;;;;;;;8.38;5.30;;;28.70;36.20;;;;;;4991676;28;20490;-89
2022/05/12 12:07:35;;;;;;;8.18;5.30;;;29.50;36.90;;;;;;4988852;28;20035;-89
2022/05/12 12:10:16;;;;;;;6.72;5.30;;;29.60;35.80;;;;;;4991711;28;20045;-89
2022/05/12 12:12:42;;;;;;;6.30;5.03;;;30.30;35.10;;;;;;4989644;28;20033;-89
2022/05/12 12:15:24;;;;;;;10.25;5.43;;;29.40;33.80;;;;;;4986701;28;20030;-88
2022/05/12 12:17:50;;;;;;;6.40;5.13;;;27.90;36.80;;;;;;5003093;28;20031;-90
2022/05/12 12:20:28;;;;;;;7.25;5.38;;;26.80;40.00;;;;;;4994768;28;20034;-90
2022/05/12 12:22:55;;;;;;;5.95;5.35;;;26.40;40.60;;;;;;4983990;28;20109;-89
2022/05/12 12:25:42;;;;;;;7.95;5.22;;;28.00;38.50;;;;;;5001321;28;20035;-90
2022/05/12 12:28:36;;;;;;;7.80;5.45;;;29.40;36.80;;;;;;4988907;28;20031;-89
2022/05/12 12:31:09;;;;;;;8.57;5.30;;;28.50;37.80;;;;;;4989349;28;20192;-89
2022/05/12 12:33:39;;;;;;;7.82;5.07;;;27.60;38.90;;;;;;4992029;28;20058;-89
2022/05/12 12:36:27;;;;;;;7.40;4.80;;;26.10;40.70;;;;;;5006986;28;20045;-89
2022/05/12 12:38:53;;;;;;;8.02;5.38;;;25.90;43.00;;;;;;5003704;28;20026;-89
2022/05/12 12:41:29;;;;;;;10.50;5.18;;;25.60;42.90;;;;;;5001977;28;20030;-89
2022/05/12 12:44:19;;;;;;;7.63;5.80;;;25.50;43.50;;;;;;4980002;28;20031;-89
2022/05/12 12:46:52;;;;;;;12.18;5.45;;;26.00;43.20;;;;;;4986970;28;20158;-89
2022/05/12 12:49:29;;;;;;;7.53;5.40;;;25.80;42.50;;;;;;4992027;28;20023;-89
2022/05/12 12:52:04;;;;;;;8.98;5.43;;;27.30;42.90;;;;;;4990587;28;20031;-89
2022/05/12 12:57:20;;;;;;;7.80;4.93;;;27.20;40.40;;;;;;4991518;28;20121;-90
2022/05/12 12:59:54;;;;;;;11.70;5.63;;;27.40;40.20;;;;;;5006236;28;20092;-89
2022/05/12 13:02:42;;;;;;;5.85;4.80;;;27.00;40.90;;;;;;4992291;28;20113;-88
2022/05/12 13:05:08;;;;;;;7.90;4.97;;;27.40;43.00;;;;;;4997061;28;20049;-88
2022/05/12 13:07:36;;;;;;;7.88;5.43;;;27.50;41.00;;;;;;5006092;28;20025;-89
2022/05/12 13:10:09;;;;;;;6.70;4.82;;;28.70;39.50;;;;;;5009214;28;20061;-88
2022/05/12 13:12:36;;;;;;;9.00;5.93;;;30.30;36.10;;;;;;5007293;28;20011;-89
2022/05/12 13:15:13;;;;;;;10.32;5.20;;;30.90;35.10;;;;;;5003915;28;20039;-89
2022/05/12 13:17:46;;;;;;;7.60;5.63;;;30.10;34.00;;;;;;4997969;28;20224;-89
2022/05/12 13:20:17;;;;;;;8.20;5.18;;;29.10;35.50;;;;;;4995283;28;20097;-89
2022/05/12 13:23:05;;;;;;;6.68;5.03;;;29.40;34.60;;;;;;4994160;28;20030;-89
2022/05/12 13:25:36;;;;;;;7.03;5.20;;;29.50;34.90;;;;;;4989641;28;20429;-89
2022/05/12 13:28:05;;;;;;;9.57;4.90;;;28.90;36.20;;;;;;4993533;28;20038;-89